Bohemia, Louisiana
Current Conditions -  °F | °C
As of 2:55 PM on Sunday 23 Nov 2014 (Local Time) from KNBG Reporting Station
Scattered Clouds Scattered Clouds  
Wind Chill: 75°   Ceiling: Unl
Heat Index: 75°   Visibility: 10mi
Dew Point: 60°   Wind: 13mph
Humidity: 60%   Direction: 230°SW
Pressure: 29.65"   Gusts: 25mph
Location:  29.5781°N, 89.7956°W
Report Text: KNBG 232055Z 23011G22KT 10SM SCT030 24/16 A2965 RMK AO2 SLP040 60000 T02390156 56013 $
Loading
Personal Weather Stations






























Interactive Weather Map New forecast layout! Learn more

10-Day Weather Forecast

Advertisements
Track Severe Weather on mobile